Hovedside
METAR-TAF:

METAR-TAF

Lufthavner :

Uleåborg, Finland

Uleåborg lufthavn

breddegrad: 64-56N, lengdegrad: 025-22E, høyde over havet: 12 m

Gjeldene værobservasjon

Denne rapporten ble laget for 23 minutter siden, klokken 04:20 UTC
Vind 7 kt fra Øst-sørøst
Temperatur 1°C
Luftfuktighet 69%
Trykk 1007 hPa
Sikt 10 km eller mer
ingen skyer under 1500 m og ingen bygeskyer

METAR: EFOU 250420Z AUTO 11007KT CAVOK 01/M04 Q1007 R12/12//95

Tid: 07:43 (04:43 UTC)

Varsel

Denne rapporten ble laget for 2 timer og 13 minutter siden, klokken 02:30 UTC
Varsel gyldig fra 25. klokken 03 UTC til 26. klokken 03 UTC
Vind 5 kt fra Øst
Sikt 10 km eller mer
ingen skyer under 1500 m og ingen bygeskyer

TAF: EFOU 250230Z 2503/2603 10005KT CAVOK

Værobservasjoner og værvarsel for over 4000 flyplasser (METAR- og TAF-rapporter).

Tilgjengelige stasjoner er representert av de røde og gule prikkene på kartet.

Hold musepekeren over prikken for å se navnet på stasjonen.

Klikk så for å se værobservasjoner og -varsler.

For å forandre kartet kan du klikke på den grønne knappen med svart kryss for å zoome inn, på den grønne knappen med strek for å zoome ut, eller på de grønne pilene for å se tilstøtende kart.


METAR-TAF: